createdAt,value
2022-09-06T00:01:16.316Z,102962.60
2022-09-06T00:03:46.662Z,102958.00
2022-09-06T00:06:20.699Z,102954.60
2022-09-06T00:08:50.237Z,102957.60
2022-09-06T00:11:22.661Z,102957.60
2022-09-06T00:13:52.652Z,102963.20
2022-09-06T00:16:28.416Z,102960.80
2022-09-06T00:18:59.551Z,102963.40
2022-09-06T00:21:30.885Z,102960.20
2022-09-06T00:23:59.826Z,102955.40
2022-09-06T00:26:27.831Z,102956.00
2022-09-06T00:28:55.969Z,102955.00
2022-09-06T00:31:27.833Z,102952.00
2022-09-06T00:33:55.753Z,102956.80
2022-09-06T00:36:24.771Z,102955.20
2022-09-06T00:38:52.570Z,102953.60
2022-09-06T00:41:21.270Z,102956.00
2022-09-06T00:43:49.632Z,102955.60
2022-09-06T00:46:29.415Z,102956.00
2022-09-06T00:49:32.808Z,102960.00
2022-09-06T00:52:13.439Z,102959.80
2022-09-06T00:54:45.062Z,102955.60
2022-09-06T00:57:15.662Z,102956.40
2022-09-06T00:59:46.697Z,102957.00
2022-09-06T01:02:15.119Z,102950.80
2022-09-06T01:04:46.649Z,102951.20
2022-09-06T01:07:54.864Z,102949.60
2022-09-06T01:11:01.241Z,102952.80
2022-09-06T01:13:47.260Z,102952.40
2022-09-06T01:16:38.882Z,102960.40
2022-09-06T01:19:50.413Z,102958.40
2022-09-06T01:22:50.037Z,102960.20
2022-09-06T01:26:03.789Z,102956.80
2022-09-06T01:28:40.861Z,102958.20
2022-09-06T01:31:25.595Z,102955.60
2022-09-06T01:34:08.698Z,102953.00
2022-09-06T01:37:08.565Z,102952.60
2022-09-06T01:39:38.069Z,102948.60
2022-09-06T01:42:11.079Z,102953.60
2022-09-06T01:44:45.734Z,102952.00
2022-09-06T01:48:05.119Z,102954.80
2022-09-06T01:51:02.911Z,102957.00
2022-09-06T01:54:01.587Z,102956.80
2022-09-06T01:57:27.573Z,102957.60
2022-09-06T02:00:15.054Z,102959.00
2022-09-06T02:03:32.767Z,102958.20
2022-09-06T02:06:09.895Z,102958.40
2022-09-06T02:08:49.333Z,102954.40
2022-09-06T02:11:18.341Z,102949.20
2022-09-06T02:14:03.774Z,102947.20
2022-09-06T02:16:35.702Z,102941.60
2022-09-06T02:19:15.321Z,102939.60
2022-09-06T02:21:47.507Z,102944.20
2022-09-06T02:24:25.850Z,102942.00
2022-09-06T02:26:53.816Z,102943.40
2022-09-06T02:29:21.970Z,102940.60
2022-09-06T02:32:19.190Z,102942.80
2022-09-06T02:34:49.578Z,102940.00
2022-09-06T02:37:18.200Z,102946.60
2022-09-06T02:39:46.310Z,102944.40
2022-09-06T02:42:17.592Z,102945.00
2022-09-06T02:44:45.577Z,102944.40
2022-09-06T02:47:14.094Z,102944.00
2022-09-06T02:49:41.877Z,102940.20
2022-09-06T02:52:10.273Z,102942.20
2022-09-06T02:54:38.029Z,102938.40
2022-09-06T02:57:05.818Z,102936.80
2022-09-06T02:59:33.663Z,102936.80
2022-09-06T03:02:01.451Z,102942.00
2022-09-06T03:04:30.414Z,102936.20
2022-09-06T03:06:58.229Z,102937.00
2022-09-06T03:09:27.646Z,102935.60
2022-09-06T03:12:00.489Z,102937.20
2022-09-06T03:14:28.952Z,102936.00
2022-09-06T03:16:56.953Z,102935.60
2022-09-06T03:19:24.873Z,102926.00
2022-09-06T03:21:52.944Z,102926.60
2022-09-06T03:24:22.505Z,102922.00
2022-09-06T03:26:51.104Z,102920.60
2022-09-06T03:29:20.695Z,102916.20
2022-09-06T03:31:48.910Z,102916.40
2022-09-06T03:34:18.182Z,102914.60
2022-09-06T03:36:46.751Z,102913.20
2022-09-06T03:39:14.461Z,102912.40
2022-09-06T03:41:42.736Z,102913.00
2022-09-06T03:44:10.496Z,102911.80
2022-09-06T03:46:38.489Z,102907.60
2022-09-06T03:49:06.473Z,102912.00
2022-09-06T03:51:35.755Z,102912.20
2022-09-06T03:54:03.772Z,102910.20
2022-09-06T03:56:31.457Z,102909.40
2022-09-06T03:59:00.828Z,102903.60
2022-09-06T04:01:30.951Z,102904.20
2022-09-06T04:04:01.598Z,102895.40
2022-09-06T04:06:29.363Z,102896.60
2022-09-06T04:08:57.472Z,102896.60
2022-09-06T04:11:25.371Z,102895.00
2022-09-06T04:13:54.045Z,102891.60
2022-09-06T04:16:22.214Z,102895.20
2022-09-06T04:18:50.300Z,102897.40
2022-09-06T04:21:18.025Z,102895.60
2022-09-06T04:23:46.183Z,102896.40
2022-09-06T04:26:15.604Z,102897.80
2022-09-06T04:28:44.804Z,102894.20
2022-09-06T04:31:14.495Z,102891.20
2022-09-06T04:33:47.158Z,102887.80
2022-09-06T04:36:17.897Z,102890.20
2022-09-06T04:38:46.461Z,102881.20
2022-09-06T04:41:17.261Z,102884.80
2022-09-06T04:43:46.385Z,102884.60
2022-09-06T04:46:27.062Z,102881.60
2022-09-06T04:48:58.888Z,102884.60
2022-09-06T04:51:34.489Z,102885.60
2022-09-06T04:54:03.410Z,102881.40
2022-09-06T04:56:31.605Z,102885.00
2022-09-06T04:59:00.052Z,102883.60
2022-09-06T05:01:28.554Z,102886.20
2022-09-06T05:03:57.210Z,102890.40
2022-09-06T05:06:26.132Z,102885.40
2022-09-06T05:08:53.939Z,102883.60
2022-09-06T05:11:21.721Z,102887.60
2022-09-06T05:13:50.446Z,102885.20
2022-09-06T05:16:18.871Z,102883.60
2022-09-06T05:18:46.809Z,102884.60
2022-09-06T05:21:16.231Z,102885.20
2022-09-06T05:23:48.413Z,102887.20
2022-09-06T05:26:16.236Z,102887.60
2022-09-06T05:28:43.998Z,102883.60
2022-09-06T05:31:29.293Z,102878.40
2022-09-06T05:33:58.425Z,102876.00
2022-09-06T05:36:29.999Z,102874.40
2022-09-06T05:38:59.311Z,102873.40
2022-09-06T05:41:27.940Z,102870.80
2022-09-06T05:43:58.310Z,102868.80
2022-09-06T05:46:26.663Z,102871.00
2022-09-06T05:49:07.932Z,102866.40
2022-09-06T05:51:35.687Z,102863.80
2022-09-06T05:54:03.994Z,102866.80
2022-09-06T05:56:32.880Z,102867.40
2022-09-06T05:59:01.721Z,102873.40
2022-09-06T06:01:30.838Z,102873.40
2022-09-06T06:04:02.139Z,102872.00
2022-09-06T06:06:34.627Z,102863.80
2022-09-06T06:09:02.475Z,102871.20
2022-09-06T06:11:32.156Z,102869.40
2022-09-06T06:14:02.486Z,102868.20
2022-09-06T06:16:31.094Z,102863.60
2022-09-06T06:18:59.384Z,102858.60
2022-09-06T06:21:31.913Z,102858.20
2022-09-06T06:24:03.524Z,102855.00
2022-09-06T06:26:36.955Z,102855.40
2022-09-06T06:29:09.714Z,102853.80
2022-09-06T06:31:39.150Z,102856.60
2022-09-06T06:34:11.142Z,102856.20
2022-09-06T06:36:39.006Z,102855.60
2022-09-06T06:39:08.749Z,102854.20
2022-09-06T06:41:39.423Z,102861.00
2022-09-06T06:44:07.197Z,102857.60
2022-09-06T06:46:38.212Z,102857.00
2022-09-06T06:49:06.921Z,102858.40
2022-09-06T06:51:37.650Z,102855.60
2022-09-06T06:54:06.496Z,102859.60
2022-09-06T06:56:44.884Z,102853.40
2022-09-06T06:59:13.477Z,102848.60
2022-09-06T07:01:41.419Z,102843.40
2022-09-06T07:04:11.979Z,102838.60
2022-09-06T07:12:25.767Z,102840.00
2022-09-06T07:14:55.688Z,102835.40
2022-09-06T07:17:23.546Z,102834.00
2022-09-06T07:22:40.633Z,102821.20
2022-09-06T07:25:15.301Z,102820.20
2022-09-06T07:30:15.071Z,102820.80
2022-09-06T07:32:43.506Z,102820.40
2022-09-06T07:35:14.302Z,102820.00
2022-09-06T07:37:44.379Z,102818.00
2022-09-06T07:40:12.126Z,102814.00
2022-09-06T07:42:39.918Z,102809.40
2022-09-06T07:45:09.077Z,102808.20
2022-09-06T07:53:20.494Z,102801.60
2022-09-06T07:55:54.111Z,102803.80
2022-09-06T07:58:23.023Z,102796.20
2022-09-06T08:00:51.298Z,102799.00
2022-09-06T08:03:19.255Z,102799.40
2022-09-06T08:11:31.530Z,102785.40
2022-09-06T08:14:01.943Z,102782.80
2022-09-06T08:16:31.540Z,102782.00
2022-09-06T08:19:04.733Z,102781.00
2022-09-06T08:21:34.649Z,102776.40
2022-09-06T08:24:06.436Z,102774.40
2022-09-06T08:26:39.342Z,102774.60
2022-09-06T08:29:09.128Z,102771.20
2022-09-06T08:31:41.358Z,102773.80
2022-09-06T08:34:09.975Z,102773.40
2022-09-06T08:36:38.800Z,102773.40
2022-09-06T08:39:12.068Z,102766.80
2022-09-06T08:42:01.107Z,102765.20
2022-09-06T08:44:56.608Z,102766.00
2022-09-06T08:47:25.550Z,102763.00
2022-09-06T08:50:11.945Z,102758.80
2022-09-06T08:53:13.204Z,102761.60
2022-09-06T08:55:55.853Z,102764.40
2022-09-06T08:58:34.292Z,102761.40
2022-09-06T09:01:14.552Z,102764.40
2022-09-06T09:03:44.924Z,102761.40
2022-09-06T09:06:13.110Z,102756.40
2022-09-06T09:09:00.196Z,102753.80
2022-09-06T09:11:30.293Z,102755.20
2022-09-06T09:14:29.129Z,102757.40
2022-09-06T09:17:06.289Z,102751.00
2022-09-06T09:19:37.569Z,102753.40
2022-09-06T09:22:05.431Z,102746.40
2022-09-06T09:24:35.104Z,102741.00
2022-09-06T09:27:11.451Z,102737.60
2022-09-06T09:32:46.154Z,102736.00
2022-09-06T09:35:32.625Z,102732.20
2022-09-06T09:38:13.440Z,102726.00
2022-09-06T09:40:52.636Z,102722.60
2022-09-06T09:43:42.613Z,102722.80
2022-09-06T09:46:28.159Z,102723.80
2022-09-06T09:49:12.599Z,102724.00
2022-09-06T09:51:46.497Z,102720.40
2022-09-06T09:54:31.096Z,102721.20
2022-09-06T09:56:59.338Z,102719.20
2022-09-06T09:59:34.053Z,102722.60
2022-09-06T10:02:16.833Z,102717.40
2022-09-06T10:04:49.834Z,102717.40
2022-09-06T10:07:26.343Z,102719.00
2022-09-06T10:10:05.329Z,102718.40
2022-09-06T10:12:40.221Z,102718.60
2022-09-06T10:15:11.985Z,102713.00
2022-09-06T10:17:51.938Z,102712.60
2022-09-06T10:20:26.262Z,102705.80
2022-09-06T10:23:06.554Z,102706.80
2022-09-06T10:26:06.392Z,102708.80
2022-09-06T10:28:45.499Z,102707.60
2022-09-06T10:31:39.451Z,102711.00
2022-09-06T10:34:44.205Z,102718.40
2022-09-06T10:37:49.689Z,102717.20
2022-09-06T10:40:42.658Z,102718.20
2022-09-06T10:43:20.478Z,102721.00
2022-09-06T10:46:14.882Z,102717.20
2022-09-06T10:48:46.475Z,102718.40
2022-09-06T10:51:40.638Z,102714.20
2022-09-06T10:54:14.522Z,102717.60
2022-09-06T10:56:47.749Z,102725.40
2022-09-06T11:02:12.405Z,102720.20
2022-09-06T11:10:37.763Z,102712.40
2022-09-06T11:13:18.306Z,102715.00
2022-09-06T11:16:05.201Z,102711.40
2022-09-06T11:18:39.347Z,102707.80
2022-09-06T11:21:43.073Z,102705.20
2022-09-06T11:24:47.942Z,102708.60
2022-09-06T11:27:31.888Z,102710.60
2022-09-06T11:30:03.357Z,102709.80
2022-09-06T11:32:43.335Z,102713.20
2022-09-06T11:35:32.913Z,102712.80
2022-09-06T11:38:23.417Z,102703.60
2022-09-06T11:41:15.192Z,102691.80
2022-09-06T11:43:53.651Z,102688.00
2022-09-06T11:46:33.524Z,102685.00
2022-09-06T11:49:09.471Z,102686.40
2022-09-06T11:51:41.965Z,102682.60
2022-09-06T11:54:26.941Z,102682.60
2022-09-06T11:57:21.766Z,102680.40
2022-09-06T12:00:00.988Z,102680.80
2022-09-06T12:02:37.921Z,102670.80
2022-09-06T12:05:07.598Z,102664.80
2022-09-06T12:07:57.662Z,102670.60
2022-09-06T12:10:31.881Z,102669.80
2022-09-06T12:12:59.737Z,102670.20
2022-09-06T12:15:32.959Z,102658.60
2022-09-06T12:18:01.142Z,102653.60
2022-09-06T12:20:47.859Z,102651.60
2022-09-06T12:23:37.390Z,102652.40
2022-09-06T12:26:10.906Z,102644.00
2022-09-06T12:28:52.911Z,102635.60
2022-09-06T12:31:50.929Z,102635.80
2022-09-06T12:34:30.567Z,102640.20
2022-09-06T12:37:04.679Z,102635.60
2022-09-06T12:39:33.683Z,102631.20
2022-09-06T12:42:12.662Z,102623.60
2022-09-06T12:44:54.545Z,102622.00
2022-09-06T12:47:33.820Z,102622.40
2022-09-06T12:50:22.651Z,102618.60
2022-09-06T12:52:52.180Z,102616.60
2022-09-06T12:55:23.920Z,102608.60
2022-09-06T12:58:00.246Z,102612.40
2022-09-06T13:00:36.342Z,102613.20
2022-09-06T13:03:19.265Z,102614.20
2022-09-06T13:05:47.738Z,102613.00
2022-09-06T13:08:35.568Z,102609.00
2022-09-06T13:11:11.274Z,102602.40
2022-09-06T13:13:48.909Z,102599.60
2022-09-06T13:16:24.541Z,102598.00
2022-09-06T13:18:54.067Z,102594.80
2022-09-06T13:21:34.981Z,102596.80
2022-09-06T13:24:23.540Z,102591.20
2022-09-06T13:26:53.321Z,102588.00
2022-09-06T13:29:31.554Z,102579.80
2022-09-06T13:32:03.499Z,102579.60
2022-09-06T13:34:33.837Z,102577.20
2022-09-06T13:37:10.257Z,102578.00
2022-09-06T13:39:41.959Z,102571.00
2022-09-06T13:42:33.270Z,102569.20
2022-09-06T13:45:30.230Z,102565.40
2022-09-06T13:48:13.098Z,102562.20
2022-09-06T13:50:45.735Z,102558.00
2022-09-06T13:53:20.640Z,102554.60
2022-09-06T13:55:48.375Z,102552.00
2022-09-06T13:58:16.263Z,102548.60
2022-09-06T14:00:49.184Z,102540.00
2022-09-06T14:03:28.592Z,102540.60
2022-09-06T14:06:02.516Z,102539.60
2022-09-06T14:08:56.143Z,102538.40
2022-09-06T14:11:47.474Z,102527.80
2022-09-06T14:14:27.390Z,102528.00
2022-09-06T14:17:03.263Z,102527.20
2022-09-06T14:19:46.682Z,102527.60
2022-09-06T14:22:29.646Z,102531.40
2022-09-06T14:28:25.374Z,102531.00
2022-09-06T14:31:34.959Z,102525.40
2022-09-06T14:34:21.161Z,102522.40
2022-09-06T14:37:14.839Z,102520.60
2022-09-06T14:42:35.775Z,102517.80
2022-09-06T14:45:05.985Z,102515.20
2022-09-06T14:47:33.969Z,102512.60
2022-09-06T14:50:02.442Z,102509.00
2022-09-06T14:52:30.276Z,102505.00
2022-09-06T14:54:57.953Z,102499.40
2022-09-06T14:57:26.281Z,102498.60
2022-09-06T14:59:54.014Z,102493.60
2022-09-06T15:02:21.969Z,102490.00
2022-09-06T15:04:49.717Z,102486.40
2022-09-06T15:07:18.327Z,102486.20
2022-09-06T15:09:46.205Z,102484.80
2022-09-06T15:12:13.925Z,102484.20
2022-09-06T15:14:44.566Z,102479.20
2022-09-06T15:17:13.161Z,102476.60
2022-09-06T15:19:41.236Z,102474.00
2022-09-06T15:22:08.997Z,102471.20
2022-09-06T15:24:36.865Z,102464.80
2022-09-06T15:27:05.295Z,102462.00
2022-09-06T15:29:33.025Z,102452.20
2022-09-06T15:32:00.834Z,102446.60
2022-09-06T15:34:28.832Z,102444.60
2022-09-06T15:36:57.122Z,102441.80
2022-09-06T15:39:24.966Z,102449.00
2022-09-06T15:41:52.909Z,102452.80
2022-09-06T15:44:21.760Z,102451.00
2022-09-06T15:46:59.844Z,102449.20
2022-09-06T15:49:34.698Z,102449.40
2022-09-06T15:52:06.012Z,102448.00
2022-09-06T15:54:52.329Z,102443.40
2022-09-06T15:57:20.450Z,102443.60
2022-09-06T15:59:48.390Z,102439.20
2022-09-06T16:02:16.290Z,102441.40
2022-09-06T16:04:46.369Z,102435.00
2022-09-06T16:07:14.257Z,102433.80
2022-09-06T16:09:42.703Z,102432.40
2022-09-06T16:12:10.937Z,102430.20
2022-09-06T16:14:39.226Z,102433.80
2022-09-06T16:17:07.282Z,102431.00
2022-09-06T16:19:35.208Z,102431.80
2022-09-06T16:22:03.291Z,102434.00
2022-09-06T16:24:31.069Z,102435.40
2022-09-06T16:26:59.511Z,102435.40
2022-09-06T16:29:27.301Z,102438.00
2022-09-06T16:31:59.844Z,102435.20
2022-09-06T16:34:27.977Z,102429.00
2022-09-06T16:36:57.117Z,102431.80
2022-09-06T16:39:25.455Z,102429.80
2022-09-06T16:41:53.457Z,102429.60
2022-09-06T16:44:21.179Z,102430.60
2022-09-06T16:46:50.753Z,102427.60
2022-09-06T16:49:19.571Z,102417.00
2022-09-06T16:51:50.042Z,102419.40
2022-09-06T16:54:19.664Z,102418.80
2022-09-06T16:56:47.877Z,102415.20
2022-09-06T16:59:17.408Z,102415.60
2022-09-06T17:01:45.836Z,102413.00
2022-09-06T17:04:14.867Z,102415.80
2022-09-06T17:06:44.551Z,102412.20
2022-09-06T17:09:16.624Z,102415.40
2022-09-06T17:11:45.011Z,102421.00
2022-09-06T17:14:13.570Z,102419.80
2022-09-06T17:16:59.971Z,102416.60
2022-09-06T17:19:29.462Z,102419.00
2022-09-06T17:21:58.129Z,102412.60
2022-09-06T17:24:26.964Z,102410.20
2022-09-06T17:26:54.729Z,102411.20
2022-09-06T17:29:22.758Z,102411.20
2022-09-06T17:31:50.565Z,102412.80
2022-09-06T17:34:18.581Z,102416.40
2022-09-06T17:36:46.439Z,102419.00
2022-09-06T17:39:18.747Z,102417.80
2022-09-06T17:41:53.356Z,102415.80
2022-09-06T17:44:25.611Z,102415.20
2022-09-06T17:47:12.056Z,102415.00
2022-09-06T17:49:43.044Z,102415.20
2022-09-06T17:52:11.980Z,102415.20
2022-09-06T17:54:39.754Z,102415.20
2022-09-06T17:57:07.740Z,102410.00
2022-09-06T17:59:36.375Z,102413.20
2022-09-06T18:02:06.200Z,102408.40
2022-09-06T18:04:34.634Z,102403.60
2022-09-06T18:07:02.536Z,102405.80
2022-09-06T18:09:30.666Z,102405.80
2022-09-06T18:11:59.011Z,102401.20
2022-09-06T18:14:28.785Z,102404.40
2022-09-06T18:16:57.309Z,102404.40
2022-09-06T18:19:27.555Z,102405.00
2022-09-06T18:21:57.422Z,102407.20
2022-09-06T18:24:25.334Z,102404.20
2022-09-06T18:26:53.127Z,102406.00
2022-09-06T18:29:21.756Z,102409.20
2022-09-06T18:31:53.884Z,102404.40
2022-09-06T18:34:22.085Z,102403.40
2022-09-06T18:36:50.091Z,102408.00
2022-09-06T18:39:19.220Z,102404.80
2022-09-06T18:42:02.093Z,102399.40
2022-09-06T18:44:33.769Z,102398.00
2022-09-06T18:47:05.655Z,102396.20
2022-09-06T18:49:34.757Z,102394.20
2022-09-06T18:52:05.516Z,102391.80
2022-09-06T18:54:33.368Z,102390.40
2022-09-06T18:57:01.281Z,102390.80
2022-09-06T18:59:29.062Z,102385.20
2022-09-06T19:01:57.508Z,102382.60
2022-09-06T19:04:25.538Z,102376.40
2022-09-06T19:06:53.322Z,102373.80
2022-09-06T19:09:21.079Z,102367.00
2022-09-06T19:11:51.661Z,102371.40
2022-09-06T19:14:19.640Z,102367.60
2022-09-06T19:16:48.705Z,102367.20
2022-09-06T19:19:16.571Z,102362.60
2022-09-06T19:21:44.614Z,102361.60
2022-09-06T19:24:14.666Z,102360.40
2022-09-06T19:26:44.403Z,102358.20
2022-09-06T19:29:17.612Z,102360.20
2022-09-06T19:31:47.610Z,102354.20
2022-09-06T19:34:16.943Z,102353.60
2022-09-06T19:36:46.101Z,102354.80
2022-09-06T19:39:16.792Z,102351.00
2022-09-06T19:41:46.910Z,102354.80
2022-09-06T19:44:17.027Z,102354.00
2022-09-06T19:46:47.193Z,102351.60
2022-09-06T19:49:19.815Z,102349.20
2022-09-06T19:51:49.536Z,102349.20
2022-09-06T19:54:18.503Z,102344.40
2022-09-06T19:56:47.668Z,102348.20
2022-09-06T19:59:16.375Z,102348.80
2022-09-06T20:01:47.759Z,102348.40
2022-09-06T20:04:16.364Z,102342.60
2022-09-06T20:06:44.842Z,102345.00
2022-09-06T20:09:15.478Z,102345.00
2022-09-06T20:11:43.675Z,102346.00
2022-09-06T20:14:13.334Z,102342.20
2022-09-06T20:16:42.415Z,102344.80
2022-09-06T20:19:14.244Z,102342.80
2022-09-06T20:21:43.102Z,102344.20
2022-09-06T20:24:11.078Z,102342.60
2022-09-06T20:26:40.430Z,102343.60
2022-09-06T20:29:08.591Z,102341.60
2022-09-06T20:31:38.456Z,102339.20
2022-09-06T20:34:07.780Z,102335.20
2022-09-06T20:36:36.336Z,102337.00
2022-09-06T20:39:05.049Z,102335.60
2022-09-06T20:41:34.597Z,102337.40
2022-09-06T20:44:03.802Z,102340.40
2022-09-06T20:46:35.500Z,102337.40
2022-09-06T20:49:05.344Z,102336.60
2022-09-06T20:51:36.412Z,102336.00
2022-09-06T20:54:06.494Z,102333.60
2022-09-06T20:56:40.274Z,102337.20
2022-09-06T20:59:12.418Z,102338.20
2022-09-06T21:01:46.453Z,102339.00
2022-09-06T21:04:16.855Z,102335.40
2022-09-06T21:06:47.004Z,102338.20
2022-09-06T21:09:15.501Z,102335.20
2022-09-06T21:11:45.371Z,102337.40
2022-09-06T21:14:14.091Z,102336.40
2022-09-06T21:16:42.302Z,102334.80
2022-09-06T21:19:12.246Z,102331.40
2022-09-06T21:21:41.187Z,102327.60
2022-09-06T21:24:11.199Z,102327.40
2022-09-06T21:26:42.217Z,102326.60
2022-09-06T21:29:10.740Z,102325.60
2022-09-06T21:31:39.123Z,102322.60
2022-09-06T21:34:16.911Z,102323.00
2022-09-06T21:36:46.062Z,102325.00
2022-09-06T21:39:15.325Z,102319.40
2022-09-06T21:41:45.042Z,102318.20
2022-09-06T21:44:13.376Z,102318.40
2022-09-06T21:46:42.555Z,102309.20
2022-09-06T21:49:13.784Z,102307.80
2022-09-06T21:51:43.195Z,102310.80
2022-09-06T21:54:11.295Z,102313.40
2022-09-06T21:56:40.725Z,102305.20
2022-09-06T21:59:10.206Z,102305.20
2022-09-06T22:01:41.017Z,102304.40
2022-09-06T22:04:09.602Z,102302.40
2022-09-06T22:06:38.154Z,102303.80
2022-09-06T22:09:13.429Z,102301.40
2022-09-06T22:11:44.432Z,102302.20
2022-09-06T22:14:15.498Z,102298.80
2022-09-06T22:16:44.128Z,102298.60
2022-09-06T22:19:12.673Z,102300.20
2022-09-06T22:21:40.861Z,102298.80
2022-09-06T22:24:12.747Z,102297.00
2022-09-06T22:26:41.690Z,102298.00
2022-09-06T22:29:13.699Z,102295.40
2022-09-06T22:31:43.173Z,102297.80
2022-09-06T22:34:11.071Z,102293.80
2022-09-06T22:36:39.147Z,102295.00
2022-09-06T22:39:06.967Z,102292.80
2022-09-06T22:41:34.729Z,102292.20
2022-09-06T22:44:04.300Z,102294.20
2022-09-06T22:46:33.651Z,102294.80
2022-09-06T22:49:04.134Z,102301.60
2022-09-06T22:51:32.836Z,102303.40
2022-09-06T22:54:00.927Z,102305.20
2022-09-06T22:56:29.420Z,102302.20
2022-09-06T22:58:59.891Z,102304.60
2022-09-06T23:01:28.352Z,102299.40
2022-09-06T23:03:56.690Z,102307.60
2022-09-06T23:06:25.703Z,102306.60
2022-09-06T23:08:53.623Z,102298.40
2022-09-06T23:11:21.629Z,102297.60
2022-09-06T23:13:49.817Z,102295.20
2022-09-06T23:16:19.952Z,102294.40
2022-09-06T23:18:48.854Z,102290.00
2022-09-06T23:21:22.436Z,102286.40
2022-09-06T23:23:53.273Z,102276.20
2022-09-06T23:26:27.654Z,102279.40
2022-09-06T23:28:56.945Z,102278.60
2022-09-06T23:31:28.796Z,102282.00
2022-09-06T23:34:01.185Z,102281.40
2022-09-06T23:36:30.260Z,102279.60
2022-09-06T23:38:58.780Z,102275.20
2022-09-06T23:41:26.817Z,102280.60
2022-09-06T23:43:54.812Z,102277.80
2022-09-06T23:46:23.056Z,102276.00
2022-09-06T23:48:50.892Z,102278.00
2022-09-06T23:51:19.163Z,102273.40
2022-09-06T23:53:47.073Z,102276.80
2022-09-06T23:56:16.090Z,102273.80
2022-09-06T23:58:44.491Z,102273.20
